Time;durP1;ratioP1;P1;durP2;ratioP2;P2;SDS_P1;SDS_P2;PMS_P1;PMS_P2;Temp;Humidity;BMP_temperature;BMP_pressure;BME280_temperature;BME280_humidity;BME280_pressure;Samples;Min_cycle;Max_cycle;Signal;HPM_P1;HPM_P2
2022/05/08 00:02:02;;;;;;;6.50;4.72;;;;;;;13.83;100.00;101087.47;5032202;28;20053;-61
2022/05/08 00:04:30;;;;;;;7.95;4.78;;;;;;;13.81;100.00;101091.63;5032629;28;20049;-61
2022/05/08 00:06:58;;;;;;;5.70;4.55;;;;;;;13.80;100.00;101078.97;5046196;28;20117;-62
2022/05/08 00:09:26;;;;;;;5.60;4.10;;;;;;;13.73;100.00;101081.25;5036168;28;20053;-62
2022/05/08 00:11:53;;;;;;;6.50;4.38;;;;;;;13.70;100.00;101080.69;5032622;28;20396;-61
2022/05/08 00:14:22;;;;;;;6.38;4.68;;;;;;;13.74;100.00;101085.63;5039320;28;20053;-62
2022/05/08 00:16:58;;;;;;;6.53;4.85;;;;;;;13.68;100.00;101082.94;5034211;28;20056;-62
2022/05/08 00:19:49;;;;;;;6.50;4.80;;;;;;;13.75;100.00;101084.53;5032107;28;20056;-62
2022/05/08 00:22:36;;;;;;;6.97;5.40;;;;;;;13.82;100.00;101074.00;5033952;28;20042;-62
2022/05/08 00:25:08;;;;;;;6.85;4.90;;;;;;;13.81;100.00;101075.94;5038229;28;20596;-61
2022/05/08 00:27:36;;;;;;;8.93;5.68;;;;;;;13.72;100.00;101074.13;5035149;28;20052;-61
2022/05/08 00:30:04;;;;;;;7.22;5.18;;;;;;;13.68;100.00;101071.09;5047985;28;20127;-61
2022/05/08 00:32:32;;;;;;;8.77;5.97;;;;;;;13.64;100.00;101064.56;5045403;28;20509;-62
2022/05/08 00:35:00;;;;;;;9.50;5.78;;;;;;;13.61;100.00;101073.38;5031836;28;20061;-62
2022/05/08 00:37:28;;;;;;;11.60;5.38;;;;;;;13.73;100.00;101068.31;5031360;28;20045;-62
2022/05/08 00:39:56;;;;;;;9.10;5.53;;;;;;;13.73;100.00;101064.75;5039024;28;20049;-62
2022/05/08 00:42:27;;;;;;;7.53;5.40;;;;;;;13.69;100.00;101070.00;5039348;28;20412;-62
2022/05/08 00:44:55;;;;;;;8.95;5.28;;;;;;;13.61;100.00;101062.38;5041325;28;20056;-62
2022/05/08 00:47:28;;;;;;;7.00;4.88;;;;;;;13.48;100.00;101061.91;5049077;28;20057;-61
2022/05/08 00:49:56;;;;;;;6.95;4.85;;;;;;;13.41;100.00;101059.47;5032628;28;20049;-62
2022/05/08 00:52:27;;;;;;;9.88;5.15;;;;;;;13.46;100.00;101060.53;5031322;28;20515;-61
2022/05/08 00:55:00;;;;;;;7.97;4.60;;;;;;;13.52;100.00;101062.16;5043991;28;20051;-61
2022/05/08 00:57:30;;;;;;;5.97;4.80;;;;;;;13.63;100.00;101058.22;5032957;28;20050;-62
2022/05/08 01:00:03;;;;;;;7.45;4.72;;;;;;;13.55;100.00;101058.84;5031434;28;20053;-61
2022/05/08 01:02:32;;;;;;;9.15;4.93;;;;;;;13.54;100.00;101063.53;5038159;28;20056;-61
2022/05/08 01:05:00;;;;;;;4.93;4.07;;;;;;;13.68;100.00;101058.19;5041847;28;20051;-61
2022/05/08 01:07:29;;;;;;;8.88;4.65;;;;;;;13.58;100.00;101058.25;5034166;28;20049;-62
2022/05/08 01:09:57;;;;;;;8.05;5.43;;;;;;;13.55;100.00;101056.09;5031117;28;20508;-61
2022/05/08 01:12:27;;;;;;;4.80;3.53;;;;;;;13.54;100.00;101060.78;5031329;28;20064;-61
2022/05/08 01:15:18;;;;;;;5.93;4.25;;;;;;;13.54;100.00;101055.28;5039268;28;20053;-62
2022/05/08 01:17:48;;;;;;;6.80;4.32;;;;;;;13.53;100.00;101052.81;5035489;28;20049;-61
2022/05/08 01:20:17;;;;;;;7.25;4.07;;;;;;;13.50;100.00;101056.16;5048899;28;20037;-61
2022/05/08 01:22:45;;;;;;;5.32;4.05;;;;;;;13.50;100.00;101058.91;5046925;28;20045;-61
2022/05/08 01:25:13;;;;;;;6.50;4.22;;;;;;;13.56;100.00;101063.25;5030942;28;20046;-62
2022/05/08 01:27:41;;;;;;;5.72;4.28;;;;;;;13.57;100.00;101056.63;5043056;28;20052;-61
2022/05/08 01:30:09;;;;;;;6.50;4.75;;;;;;;13.56;100.00;101052.25;5036007;28;20056;-62
2022/05/08 01:32:37;;;;;;;6.18;4.55;;;;;;;13.56;100.00;101055.00;5051986;28;20053;-62
2022/05/08 01:35:06;;;;;;;5.93;4.00;;;;;;;13.60;100.00;101053.31;5049821;28;20491;-61
2022/05/08 01:37:34;;;;;;;4.97;3.78;;;;;;;13.61;100.00;101059.63;5035743;28;20057;-61
2022/05/08 01:40:02;;;;;;;4.50;3.40;;;;;;;13.76;100.00;101066.91;5035240;28;20079;-61
2022/05/08 01:42:30;;;;;;;4.95;3.80;;;;;;;13.83;100.00;101057.22;5049494;28;20477;-61
2022/05/08 01:44:58;;;;;;;6.03;3.88;;;;;;;13.80;100.00;101062.47;5044449;28;20507;-61
2022/05/08 01:50:16;;;;;;;6.28;3.88;;;;;;;13.80;100.00;101059.72;5046645;28;20049;-61
2022/05/08 01:52:44;;;;;;;7.05;4.43;;;;;;;13.80;100.00;101056.97;5034927;28;20046;-61
2022/05/08 01:55:12;;;;;;;5.22;3.78;;;;;;;13.78;100.00;101056.44;5034165;28;20045;-61
2022/05/08 01:57:40;;;;;;;5.07;3.53;;;;;;;13.75;100.00;101059.75;5035251;28;20045;-61
2022/05/08 02:00:08;;;;;;;3.65;3.05;;;;;;;13.80;100.00;101056.97;5045009;28;20504;-61
2022/05/08 02:02:44;;;;;;;;;;;;;;;13.74;100.00;101052.63;5041386;28;20056;-61
2022/05/08 02:05:12;;;;;;;6.22;3.42;;;;;;;13.73;100.00;101054.53;5045051;28;19948;-61
2022/05/08 02:07:40;;;;;;;3.40;2.80;;;;;;;13.75;100.00;101054.25;5036103;28;20413;-61
2022/05/08 02:10:08;;;;;;;4.25;3.38;;;;;;;13.72;100.00;101052.09;5033590;28;20514;-62
2022/05/08 02:12:39;;;;;;;6.25;3.40;;;;;;;13.71;100.00;101051.28;5034226;28;20046;-61
2022/05/08 02:15:09;;;;;;;3.88;3.20;;;;;;;13.74;100.00;101047.13;5034706;28;20404;-62
2022/05/08 02:17:38;;;;;;;5.00;3.58;;;;;;;13.70;100.00;101052.38;5048839;28;20076;-61
2022/05/08 02:20:08;;;;;;;3.78;3.08;;;;;;;13.65;100.00;101045.00;5042870;28;20064;-61
2022/05/08 02:22:39;;;;;;;8.93;3.22;;;;;;;13.66;100.00;101048.56;5033073;28;20058;-62
2022/05/08 02:25:08;;;;;;;4.85;3.38;;;;;;;13.66;100.00;101043.91;5045833;28;20482;-61
2022/05/08 02:27:41;;;;;;;3.90;2.92;;;;;;;13.66;100.00;101045.81;5034317;28;20053;-61
2022/05/08 02:30:11;;;;;;;6.85;3.38;;;;;;;13.96;100.00;101046.63;5034173;28;20501;-61
2022/05/08 02:32:39;;;;;;;5.38;3.17;;;;;;;14.02;100.00;101047.41;5049114;28;20393;-61
2022/05/08 02:35:12;;;;;;;4.82;3.53;;;;;;;14.04;100.00;101047.91;5052977;28;20056;-61
2022/05/08 02:37:41;;;;;;;4.07;3.03;;;;;;;13.92;100.00;101046.38;5046283;28;20091;-61
2022/05/08 02:40:10;;;;;;;5.78;3.60;;;;;;;13.88;100.00;101047.28;5053318;28;20053;-61
2022/05/08 02:42:39;;;;;;;3.55;2.92;;;;;;;13.83;100.00;101039.88;5054174;28;20041;-61
2022/05/08 02:45:11;;;;;;;5.20;3.90;;;;;;;13.62;100.00;101042.00;5053052;28;20053;-61
2022/05/08 02:47:41;;;;;;;;;;;;;;;13.52;100.00;101052.00;5052802;28;20053;-61
2022/05/08 02:50:10;;;;;;;5.07;3.33;;;;;;;13.44;100.00;101041.56;5016250;28;20407;-61
2022/05/08 02:52:40;;;;;;;5.82;3.58;;;;;;;13.38;100.00;101051.81;5039396;28;20065;-61
2022/05/08 03:00:47;;;;;;;8.25;3.33;;;;;;;13.46;100.00;101033.91;5035552;28;20061;-61
2022/05/08 03:03:17;;;;;;;4.05;3.40;;;;;;;13.47;100.00;101032.78;5044865;28;20050;-61
2022/05/08 03:05:47;;;;;;;5.03;3.53;;;;;;;13.46;100.00;101038.53;5043454;28;20067;-61
2022/05/08 03:08:17;;;;;;;4.72;3.50;;;;;;;13.45;100.00;101040.50;5021379;28;20049;-61
2022/05/08 03:13:36;;;;;;;8.25;4.05;;;;;;;13.71;100.00;101043.03;5033009;28;20052;-61
2022/05/08 03:16:05;;;;;;;7.22;4.82;;;;;;;13.72;100.00;101046.59;5033420;28;20054;-61
2022/05/08 03:18:39;;;;;;;6.90;3.78;;;;;;;13.65;100.00;101038.69;5033267;28;20064;-61
2022/05/08 03:21:08;;;;;;;4.72;4.05;;;;;;;13.59;100.00;101037.91;5033773;28;20057;-61
2022/05/08 03:23:39;;;;;;;4.78;4.13;;;;;;;13.61;100.00;101043.94;5033269;28;20053;-61
2022/05/08 03:26:08;;;;;;;6.88;4.10;;;;;;;13.55;100.00;101034.91;5033145;28;20064;-62
2022/05/08 03:28:40;;;;;;;6.13;4.45;;;;;;;13.62;100.00;101031.84;5033023;28;20061;-61
2022/05/08 03:31:09;;;;;;;5.75;3.90;;;;;;;13.59;100.00;101035.16;5033073;28;20060;-62
2022/05/08 03:33:39;;;;;;;5.75;4.10;;;;;;;13.53;100.00;101030.81;5033496;28;20064;-61
2022/05/08 03:36:12;;;;;;;5.38;4.28;;;;;;;13.49;100.00;101038.81;5032512;28;20060;-61
2022/05/08 03:38:41;;;;;;;5.53;3.90;;;;;;;13.43;100.00;101043.53;5038256;28;20046;-61
2022/05/08 03:41:15;;;;;;;5.72;3.85;;;;;;;13.44;100.00;101039.66;5033044;28;20056;-61
2022/05/08 03:43:47;;;;;;;5.30;4.15;;;;;;;13.53;100.00;101047.31;5037048;28;20048;-61
2022/05/08 03:46:16;;;;;;;4.50;3.28;;;;;;;13.59;100.00;101037.09;5047973;28;20412;-61
2022/05/08 03:48:44;;;;;;;4.20;3.72;;;;;;;13.57;100.00;101040.97;5043152;28;20045;-61
2022/05/08 03:51:12;;;;;;;5.65;3.55;;;;;;;13.53;100.00;101037.13;5032546;28;20521;-61
2022/05/08 03:53:42;;;;;;;5.07;3.88;;;;;;;13.53;100.00;101041.81;5032566;28;20520;-61
2022/05/08 03:56:10;;;;;;;4.80;3.22;;;;;;;13.48;100.00;101042.69;5031600;28;20052;-61
2022/05/08 03:58:40;;;;;;;4.65;3.75;;;;;;;13.46;100.00;101044.03;5047248;28;20403;-61
2022/05/08 04:01:09;;;;;;;4.93;3.67;;;;;;;13.49;100.00;101038.00;5032272;28;20041;-61
2022/05/08 04:03:38;;;;;;;4.57;3.60;;;;;;;13.61;100.00;101038.44;5039958;28;20397;-61
2022/05/08 04:06:06;;;;;;;5.28;3.60;;;;;;;13.74;100.00;101042.44;5046028;28;20048;-61
2022/05/08 04:08:34;;;;;;;9.52;3.83;;;;;;;13.79;100.00;101049.84;5036502;28;20065;-61
2022/05/08 04:11:03;;;;;;;4.85;3.38;;;;;;;13.74;100.00;101042.44;5045831;28;20045;-61
2022/05/08 04:13:31;;;;;;;5.82;3.70;;;;;;;13.74;100.00;101036.94;5032387;28;20052;-61
2022/05/08 04:16:18;;;;;;;5.82;3.95;;;;;;;13.68;100.00;101041.66;5032191;28;20054;-61
2022/05/08 04:18:48;;;;;;;4.95;3.25;;;;;;;13.73;100.00;101048.25;5032415;28;20057;-62
2022/05/08 04:21:16;;;;;;;4.60;3.50;;;;;;;13.75;100.00;101048.75;5032242;28;20049;-62
2022/05/08 04:26:31;;;;;;;5.80;3.58;;;;;;;13.90;100.00;101050.53;5035549;28;20384;-61
2022/05/08 04:28:59;;;;;;;4.22;3.35;;;;;;;14.02;100.00;101059.22;5052015;28;20050;-61
2022/05/08 04:31:28;;;;;;;5.43;3.95;;;;;;;14.00;100.00;101055.94;5051574;28;20059;-61
2022/05/08 04:33:56;;;;;;;8.77;3.85;;;;;;;14.04;100.00;101067.19;5051511;28;20063;-61
2022/05/08 04:36:24;;;;;;;5.22;3.50;;;;;;;13.94;100.00;101079.91;5051070;28;20049;-61
2022/05/08 04:38:53;;;;;;;6.70;3.63;;;;;;;14.00;100.00;101082.63;5051469;28;20484;-61
2022/05/08 04:41:21;;;;;;;5.93;3.63;;;;;;;14.11;100.00;101071.22;5052192;28;20048;-61
2022/05/08 04:43:50;;;;;;;4.28;3.30;;;;;;;14.10;100.00;101074.28;5041312;28;20048;-62
2022/05/08 04:46:20;;;;;;;5.43;3.00;;;;;;;14.14;100.00;101078.09;5051893;28;20053;-62
2022/05/08 04:48:50;;;;;;;3.03;2.63;;;;;;;14.20;100.00;101076.91;5041479;28;20064;-61
2022/05/08 04:51:19;;;;;;;3.42;2.63;;;;;;;14.35;100.00;101078.69;5031453;28;20050;-62
2022/05/08 04:53:47;;;;;;;3.17;2.67;;;;;;;14.42;100.00;101083.81;5031723;28;20493;-62
2022/05/08 04:56:15;;;;;;;3.58;2.38;;;;;;;14.52;100.00;101083.69;5036419;28;20060;-61
2022/05/08 04:58:44;;;;;;;3.30;2.67;;;;;;;14.59;100.00;101085.28;5049103;28;20396;-62
2022/05/08 05:01:12;;;;;;;3.85;2.63;;;;;;;14.55;100.00;101081.44;5050442;28;20049;-61
2022/05/08 05:03:41;;;;;;;3.90;2.75;;;;;;;14.42;100.00;101083.81;5048141;28;20072;-61
2022/05/08 05:06:09;;;;;;;2.92;2.30;;;;;;;14.33;100.00;101080.09;5050302;28;20053;-61
2022/05/08 05:08:37;;;;;;;4.03;2.47;;;;;;;14.34;100.00;101077.03;5050570;28;20059;-61
2022/05/08 05:11:09;;;;;;;3.13;2.45;;;;;;;14.33;100.00;101085.59;5051026;28;20400;-61
2022/05/08 05:13:38;;;;;;;3.38;2.38;;;;;;;14.31;100.00;101087.78;5050436;28;20056;-61
2022/05/08 05:16:06;;;;;;;2.92;2.35;;;;;;;14.56;100.00;101094.94;5048445;28;20053;-61
2022/05/08 05:18:35;;;;;;;4.38;3.05;;;;;;;14.55;100.00;101103.50;5050380;28;20132;-61
2022/05/08 05:21:03;;;;;;;3.70;2.70;;;;;;;14.51;100.00;101098.59;5050118;28;20052;-61
2022/05/08 05:23:35;;;;;;;3.92;2.42;;;;;;;14.67;100.00;101105.84;5050088;28;20040;-61
2022/05/08 05:26:03;;;;;;;2.58;2.33;;;;;;;14.72;100.00;101098.31;5050055;28;20056;-61
2022/05/08 05:28:32;;;;;;;3.85;2.70;;;;;;;14.72;100.00;101098.31;5045601;28;20064;-61
2022/05/08 05:31:00;;;;;;;4.55;2.70;;;;;;;14.63;100.00;101103.66;5050788;28;20049;-61
2022/05/08 05:33:29;;;;;;;3.08;2.50;;;;;;;14.63;100.00;101102.84;5049747;28;20038;-61
2022/05/08 05:35:56;;;;;;;6.05;2.50;;;;;;;14.71;100.00;101112.41;5050022;28;20049;-61
2022/05/08 05:38:24;;;;;;;4.00;2.35;;;;;;;14.80;100.00;101109.84;5046956;28;20060;-61
2022/05/08 05:40:52;;;;;;;3.47;2.55;;;;;;;14.86;100.00;101106.69;5049655;28;20037;-61
2022/05/08 05:43:20;;;;;;;2.97;2.20;;;;;;;14.93;100.00;101111.88;5045583;28;20048;-61
2022/05/08 05:47:49;;;;;;;2.40;2.20;;;;;;;15.07;100.00;101114.72;5047556;28;20163;-61
2022/05/08 05:48:37;;;;;;;2.38;2.17;;;;;;;15.18;100.00;101112.59;5045002;28;20056;-60
2022/05/08 05:51:05;;;;;;;2.15;1.95;;;;;;;15.27;100.00;101116.34;5048491;28;20049;-60
2022/05/08 05:53:35;;;;;;;2.13;1.73;;;;;;;15.25;100.00;101120.53;5022063;28;20048;-61
2022/05/08 05:56:03;;;;;;;3.63;2.35;;;;;;;15.43;100.00;101124.38;5049174;28;20060;-61
2022/05/08 05:58:31;;;;;;;2.20;1.95;;;;;;;15.48;100.00;101129.81;5050222;28;20060;-71
2022/05/08 06:00:59;;;;;;;2.75;2.42;;;;;;;15.67;98.67;101124.28;5050357;28;20061;-70
2022/05/08 06:03:27;;;;;;;2.92;2.15;;;;;;;15.60;99.62;101134.88;5049599;28;20401;-70
2022/05/08 06:05:55;;;;;;;4.72;2.53;;;;;;;15.61;100.00;101127.41;5049568;28;20045;-70
2022/05/08 06:08:23;;;;;;;2.53;2.33;;;;;;;15.58;100.00;101129.66;5044358;28;20491;-70
2022/05/08 06:10:51;;;;;;;3.17;2.17;;;;;;;15.56;100.00;101140.16;5050645;28;20400;-70
2022/05/08 06:13:19;;;;;;;2.72;2.35;;;;;;;15.54;100.00;101128.59;5049527;28;20049;-70
2022/05/08 06:15:49;;;;;;;2.80;2.10;;;;;;;15.57;99.42;101133.53;5039853;28;20053;-70
2022/05/08 06:18:18;;;;;;;2.42;1.98;;;;;;;15.55;99.87;101130.25;5044230;28;20049;-70
2022/05/08 06:20:46;;;;;;;2.60;2.20;;;;;;;15.56;100.00;101126.34;5050379;28;20049;-70
2022/05/08 06:23:14;;;;;;;3.75;1.88;;;;;;;15.63;99.84;101141.72;5047297;28;20060;-70
2022/05/08 06:25:42;;;;;;;2.33;2.13;;;;;;;15.69;100.00;101141.34;5049742;28;20053;-70
2022/05/08 06:28:10;;;;;;;2.75;2.05;;;;;;;15.80;98.49;101144.72;5044205;28;20052;-69
2022/05/08 06:30:38;;;;;;;2.80;2.28;;;;;;;15.81;100.00;101143.63;5049768;28;20420;-70
2022/05/08 06:33:06;;;;;;;3.70;2.33;;;;;;;15.89;99.89;101144.06;5044228;28;20042;-70
2022/05/08 06:35:40;;;;;;;2.33;2.13;;;;;;;15.96;96.17;101145.34;5050688;28;20052;-70
2022/05/08 06:38:11;;;;;;;2.53;1.80;;;;;;;15.94;98.61;101152.28;5051169;28;20068;-71
2022/05/08 06:40:40;;;;;;;1.90;1.70;;;;;;;15.97;98.79;101157.19;5051952;28;20082;-70
2022/05/08 06:43:08;;;;;;;3.22;2.22;;;;;;;16.04;97.76;101146.56;5047850;28;20061;-70
2022/05/08 06:45:37;;;;;;;1.90;1.70;;;;;;;16.14;95.46;101153.88;5049335;28;20075;-70
2022/05/08 06:48:06;;;;;;;2.50;1.85;;;;;;;16.17;96.42;101144.16;5048888;28;20037;-70
2022/05/08 06:50:35;;;;;;;2.42;2.10;;;;;;;16.16;94.43;101139.75;5029929;28;20061;-70
2022/05/08 06:53:04;;;;;;;3.67;2.05;;;;;;;16.17;97.15;101155.19;5052460;28;20053;-70
2022/05/08 06:55:35;;;;;;;3.28;2.15;;;;;;;16.21;95.10;101145.16;5048301;28;20052;-70
2022/05/08 06:58:03;;;;;;;1.80;1.70;;;;;;;16.21;96.23;101154.28;5048057;28;20053;-70
2022/05/08 07:03:20;;;;;;;2.22;2.03;;;;;;;16.18;94.59;101145.78;5051913;28;20052;-70
2022/05/08 07:05:49;;;;;;;4.03;2.13;;;;;;;16.14;96.31;101147.50;5052646;28;20049;-70
2022/05/08 07:08:17;;;;;;;2.92;1.83;;;;;;;16.13;95.06;101154.97;5049990;28;20399;-70
2022/05/08 07:10:45;;;;;;;2.58;1.85;;;;;;;16.08;96.66;101155.88;5052769;28;20053;-70
2022/05/08 07:13:14;;;;;;;2.95;2.17;;;;;;;16.07;95.88;101157.00;5050834;28;20048;-70
2022/05/08 07:15:42;;;;;;;2.63;2.13;;;;;;;16.11;96.21;101162.75;5051096;28;20491;-70
2022/05/08 07:18:27;;;;;;;1.70;1.60;;;;;;;16.08;96.50;101169.69;5050465;28;20392;-70
2022/05/08 07:20:56;;;;;;;3.05;1.77;;;;;;;16.08;95.75;101172.44;5052419;28;20049;-70
2022/05/08 07:23:24;;;;;;;2.17;1.90;;;;;;;16.15;95.46;101174.00;5052868;28;20443;-70
2022/05/08 07:25:52;;;;;;;3.53;1.90;;;;;;;16.15;96.86;101179.53;5052284;28;20056;-70
2022/05/08 07:28:20;;;;;;;2.60;2.40;;;;;;;16.11;97.76;101174.63;5042203;28;20045;-70
2022/05/08 07:30:49;;;;;;;3.42;2.20;;;;;;;16.11;96.82;101180.13;5051229;28;20044;-70
2022/05/08 07:33:19;;;;;;;2.28;1.95;;;;;;;16.13;97.33;101185.34;5045232;28;20060;-70
2022/05/08 07:38:35;;;;;;;4.68;2.35;;;;;;;16.21;95.16;101190.19;5050322;28;20056;-70
2022/05/08 07:41:03;;;;;;;2.33;1.60;;;;;;;16.21;93.70;101190.19;5043214;28;20049;-70
2022/05/08 07:43:32;;;;;;;2.17;1.77;;;;;;;16.22;94.54;101202.03;5008588;28;20041;-69
2022/05/08 07:46:00;;;;;;;2.75;2.00;;;;;;;16.22;93.48;101197.34;5042188;28;20045;-69
2022/05/08 07:48:29;;;;;;;1.80;1.67;;;;;;;16.25;94.05;101195.91;5040744;28;20044;-70
2022/05/08 07:50:59;;;;;;;2.35;1.55;;;;;;;16.25;93.39;101198.69;5046804;28;20041;-69
2022/05/08 07:53:30;;;;;;;1.63;1.33;;;;;;;16.33;92.49;101197.97;5049830;28;20041;-68
2022/05/08 07:55:59;;;;;;;2.70;1.63;;;;;;;16.41;92.04;101204.72;5046596;28;20048;-68
2022/05/08 07:58:28;;;;;;;1.50;1.40;;;;;;;16.44;90.74;101206.91;5046730;28;20056;-68
2022/05/08 08:01:01;;;;;;;3.55;1.40;;;;;;;16.51;89.83;101209.25;5045525;28;20049;-68
2022/05/08 08:03:32;;;;;;;1.40;1.30;;;;;;;16.59;90.72;101213.25;5050773;28;20492;-68
2022/05/08 08:06:01;;;;;;;1.00;1.00;;;;;;;16.60;93.05;101212.94;5033087;28;20052;-70
2022/05/08 08:08:40;;;;;;;2.75;1.23;;;;;;;16.66;90.11;101217.25;5050660;28;20060;-70
2022/05/08 08:11:13;;;;;;;3.47;1.38;;;;;;;16.74;88.36;101217.66;5018062;28;20048;-68
2022/05/08 08:13:44;;;;;;;1.63;1.52;;;;;;;16.79;89.96;101220.31;5017335;28;21253;-68
2022/05/08 08:16:17;;;;;;;1.50;1.40;;;;;;;16.85;90.03;101221.03;5051478;28;20049;-68
2022/05/08 08:18:48;;;;;;;1.95;1.40;;;;;;;16.89;90.17;101217.38;5034292;28;20060;-68
2022/05/08 08:21:16;;;;;;;2.05;1.75;;;;;;;16.88;88.23;101218.50;5050889;28;20048;-68
2022/05/08 08:23:47;;;;;;;3.85;1.25;;;;;;;16.91;89.85;101223.41;5050424;28;20053;-68
2022/05/08 08:26:17;;;;;;;1.67;1.58;;;;;;;16.94;89.47;101230.25;5048806;28;20058;-70
2022/05/08 08:28:46;;;;;;;2.22;1.33;;;;;;;16.92;88.61;101222.25;5045911;28;20057;-70
2022/05/08 08:31:14;;;;;;;1.50;1.20;;;;;;;16.92;87.46;101227.00;5050266;28;20520;-70
2022/05/08 08:33:44;;;;;;;3.45;1.60;;;;;;;16.99;88.21;101223.78;5049887;28;20049;-70
2022/05/08 08:36:13;;;;;;;1.20;1.10;;;;;;;17.03;87.67;101230.38;5051170;28;20040;-70
2022/05/08 08:38:42;;;;;;;1.77;1.25;;;;;;;17.13;86.46;101235.72;5045150;28;20056;-69
2022/05/08 08:41:14;;;;;;;1.85;1.48;;;;;;;17.22;89.08;101240.50;5046119;28;20298;-69
2022/05/08 08:49:24;;;;;;;1.75;1.60;;;;;;;17.58;85.17;101240.56;5050155;28;20048;-70
2022/05/08 08:51:52;;;;;;;1.40;1.30;;;;;;;17.78;84.10;101243.16;5047562;28;20057;-71
2022/05/08 08:54:21;;;;;;;1.90;1.55;;;;;;;17.93;83.14;101240.00;5050895;28;20072;-71
2022/05/08 08:56:49;;;;;;;2.25;1.67;;;;;;;18.04;82.50;101246.09;5046480;28;20049;-69
2022/05/08 08:59:23;;;;;;;1.40;1.30;;;;;;;18.24;81.69;101250.34;5049157;28;20049;-70
2022/05/08 09:01:51;;;;;;;1.45;1.35;;;;;;;18.31;82.94;101240.78;5031617;28;20044;-70
2022/05/08 09:04:19;;;;;;;1.30;1.20;;;;;;;18.33;80.90;101246.84;5048543;28;20127;-70
2022/05/08 09:06:49;;;;;;;2.20;1.50;;;;;;;18.18;82.14;101240.53;5014159;28;20044;-69
2022/05/08 09:09:29;;;;;;;1.65;1.52;;;;;;;18.10;82.48;101247.66;5031568;28;20139;-69
2022/05/08 09:11:59;;;;;;;2.20;2.03;;;;;;;17.97;83.98;101243.78;5048079;28;20052;-70
2022/05/08 09:14:38;;;;;;;1.90;1.80;;;;;;;17.81;85.18;101254.44;5050236;28;20049;-70
2022/05/08 09:20:26;;;;;;;2.20;2.00;;;;;;;17.68;83.33;101245.03;5049553;28;20049;-70
2022/05/08 09:23:02;;;;;;;2.28;1.70;;;;;;;17.56;81.73;101253.06;5033696;28;20049;-70
2022/05/08 09:26:00;;;;;;;2.40;1.92;;;;;;;17.52;83.86;101252.88;5051499;28;20048;-70
2022/05/08 09:28:53;;;;;;;2.83;2.38;;;;;;;17.48;84.81;101256.53;5046280;28;20366;-70
2022/05/08 09:31:25;;;;;;;2.60;2.40;;;;;;;17.45;80.96;101256.03;5047776;28;20045;-70
2022/05/08 09:34:02;;;;;;;3.63;2.70;;;;;;;17.48;80.38;101257.38;5049709;28;20040;-70
2022/05/08 09:36:36;;;;;;;2.88;2.53;;;;;;;17.52;80.82;101246.50;5030846;28;20048;-70
2022/05/08 09:39:10;;;;;;;4.03;3.25;;;;;;;17.50;77.78;101255.09;5050163;28;20053;-71
2022/05/08 09:41:43;;;;;;;3.47;3.00;;;;;;;17.58;80.60;101248.84;5050905;28;20064;-70
2022/05/08 09:44:14;;;;;;;4.72;3.58;;;;;;;17.56;78.65;101247.53;5049684;28;20057;-70
2022/05/08 09:46:51;;;;;;;4.00;3.13;;;;;;;17.54;80.83;101249.78;5051275;28;20045;-71
2022/05/08 09:49:23;;;;;;;3.53;3.13;;;;;;;17.53;83.88;101248.13;5050593;28;20064;-69
2022/05/08 09:51:53;;;;;;;3.58;3.20;;;;;;;17.57;83.85;101238.09;5050988;28;20049;-69
2022/05/08 09:54:21;;;;;;;3.92;3.20;;;;;;;17.60;83.69;101231.94;5051951;28;20056;-70
2022/05/08 09:56:49;;;;;;;4.55;2.80;;;;;;;17.58;82.03;101245.25;5053380;28;20052;-70
2022/05/08 09:59:19;;;;;;;3.50;2.90;;;;;;;17.59;82.57;101242.19;5050891;28;20044;-70
2022/05/08 10:01:48;;;;;;;4.20;3.30;;;;;;;17.58;83.11;101234.19;5049942;28;20041;-69
2022/05/08 10:04:17;;;;;;;4.35;3.67;;;;;;;17.54;84.15;101245.06;5017203;28;20045;-70
2022/05/08 10:06:46;;;;;;;5.60;3.95;;;;;;;17.54;85.07;101241.50;5051927;28;20389;-70
2022/05/08 10:15:30;;;;;;;3.30;3.00;;;;;;;17.60;84.23;101243.81;5045791;28;20501;-70
2022/05/08 10:18:22;;;;;;;3.72;2.55;;;;;;;17.62;85.15;101234.38;5044453;28;20056;-69
2022/05/08 10:21:12;;;;;;;4.28;3.08;;;;;;;17.69;84.31;101237.56;5050461;28;20052;-70
2022/05/08 10:23:43;;;;;;;4.18;3.22;;;;;;;17.70;87.28;101236.41;5051593;28;20060;-69
2022/05/08 10:26:20;;;;;;;4.40;4.05;;;;;;;17.72;86.46;101234.97;5051680;28;20048;-69
2022/05/08 10:29:02;;;;;;;4.93;3.47;;;;;;;17.79;82.12;101234.53;5052062;28;20056;-69
2022/05/08 10:31:46;;;;;;;6.72;3.80;;;;;;;17.93;77.66;101245.56;5050026;28;20049;-70
2022/05/08 10:34:16;;;;;;;5.80;4.70;;;;;;;18.08;70.79;101247.16;5051578;28;20048;-69
2022/05/08 10:37:12;;;;;;;4.95;4.05;;;;;;;18.35;69.92;101234.31;5052559;28;20514;-69
2022/05/08 10:39:43;;;;;;;7.03;4.57;;;;;;;18.56;67.01;101235.72;5045770;28;20100;-69
2022/05/08 10:42:29;;;;;;;5.53;4.18;;;;;;;18.90;66.08;101237.81;5052594;28;20376;-69
2022/05/08 10:45:02;;;;;;;5.50;4.03;;;;;;;19.25;63.05;101225.22;5053750;28;20068;-70
2022/05/08 10:47:37;;;;;;;5.47;4.28;;;;;;;19.50;61.39;101225.56;5048748;28;20057;-69
2022/05/08 10:50:12;;;;;;;9.88;4.28;;;;;;;19.66;62.94;101229.50;5045296;28;20056;-69
2022/05/08 10:52:45;;;;;;;4.47;3.67;;;;;;;19.78;56.56;101225.22;5032617;28;20059;-70
2022/05/08 10:55:15;;;;;;;4.75;3.45;;;;;;;19.93;55.25;101221.94;5047811;28;20052;-70
2022/05/08 10:57:51;;;;;;;4.55;3.45;;;;;;;20.07;54.31;101216.25;5041598;28;20068;-69
2022/05/08 11:00:24;;;;;;;6.32;3.50;;;;;;;19.99;54.12;101217.09;5048049;28;20059;-69
2022/05/08 11:03:00;;;;;;;4.10;3.70;;;;;;;20.17;54.90;101217.03;5051350;28;20041;-69
2022/05/08 11:05:31;;;;;;;5.55;4.07;;;;;;;20.45;55.85;101213.84;5049963;28;20049;-70
2022/05/08 11:08:04;;;;;;;4.25;3.55;;;;;;;20.57;54.61;101225.09;5049692;28;20044;-69
2022/05/08 11:10:34;;;;;;;5.75;3.38;;;;;;;20.56;53.59;101214.31;5046925;28;20037;-69
2022/05/08 11:13:10;;;;;;;5.13;3.60;;;;;;;20.57;54.03;101216.75;5048874;28;20045;-69
2022/05/08 11:15:46;;;;;;;3.90;3.35;;;;;;;20.52;53.63;101226.09;5049815;28;20056;-69
2022/05/08 11:18:26;;;;;;;9.13;5.97;;;;;;;20.45;52.49;101231.38;5049416;28;20037;-71
2022/05/08 11:20:59;;;;;;;3.58;3.28;;;;;;;20.36;51.90;101213.88;5044234;28;20053;-71
2022/05/08 11:23:31;;;;;;;3.67;3.20;;;;;;;20.44;51.56;101212.22;5050858;28;20056;-70
2022/05/08 11:26:02;;;;;;;4.32;3.47;;;;;;;20.59;50.28;101219.19;5051416;28;20308;-70
2022/05/08 11:28:32;;;;;;;4.68;3.95;;;;;;;20.76;52.33;101212.75;5051623;28;20052;-71
2022/05/08 11:31:11;;;;;;;7.00;3.13;;;;;;;21.07;51.47;101211.66;5052520;28;20049;-71
2022/05/08 11:36:30;;;;;;;2.65;2.45;;;;;;;21.48;48.92;101214.78;5051681;28;20052;-71
2022/05/08 11:39:00;;;;;;;3.80;3.05;;;;;;;21.54;47.47;101210.66;5050955;28;20060;-70
2022/05/08 11:41:42;;;;;;;3.08;2.78;;;;;;;21.60;48.67;101212.06;5052731;28;20045;-70
2022/05/08 11:44:15;;;;;;;3.50;2.88;;;;;;;21.64;48.97;101216.97;5049796;28;20040;-71
2022/05/08 11:46:45;;;;;;;2.80;2.50;;;;;;;21.60;47.54;101211.25;5051560;28;20045;-71
2022/05/08 11:49:29;;;;;;;3.03;2.55;;;;;;;21.52;48.22;101209.34;5046732;28;20048;-71
2022/05/08 11:52:02;;;;;;;2.47;2.28;;;;;;;21.40;47.35;101202.56;5024820;28;20538;-71
2022/05/08 11:54:36;;;;;;;3.83;2.80;;;;;;;21.38;47.76;101216.03;5023930;28;20053;-70
2022/05/08 11:57:13;;;;;;;3.85;2.28;;;;;;;21.38;46.97;101199.31;5053156;28;20635;-70
2022/05/08 11:59:43;;;;;;;2.72;2.50;;;;;;;21.42;45.98;101200.28;5050577;28;20056;-71
2022/05/08 12:02:12;;;;;;;3.97;2.47;;;;;;;21.44;46.95;101197.97;5051105;28;20036;-70
2022/05/08 12:04:41;;;;;;;3.55;3.00;;;;;;;21.45;48.68;101202.38;5048418;28;20045;-71
2022/05/08 12:07:13;;;;;;;3.47;2.78;;;;;;;21.50;48.09;101192.19;5031141;28;20435;-70
2022/05/08 12:09:45;;;;;;;3.50;3.00;;;;;;;21.59;46.76;101198.47;5045001;28;20045;-71
2022/05/08 12:12:32;;;;;;;4.47;2.80;;;;;;;21.70;48.13;101198.94;5046844;28;20543;-70
2022/05/08 12:15:09;;;;;;;3.92;2.70;;;;;;;21.58;48.06;101191.28;5049242;28;20048;-70
2022/05/08 12:17:46;;;;;;;5.57;2.67;;;;;;;21.51;46.78;101191.81;5046095;28;20056;-70